createdAt,value
2017-04-26T00:00:11.209Z,994.31
2017-04-26T00:01:11.243Z,994.35
2017-04-26T00:02:11.274Z,994.33
2017-04-26T00:03:11.313Z,994.33
2017-04-26T00:04:11.343Z,994.32
2017-04-26T00:05:11.380Z,994.32
2017-04-26T00:06:11.415Z,994.33
2017-04-26T00:07:11.449Z,994.36
2017-04-26T00:08:11.481Z,994.27
2017-04-26T00:09:11.517Z,994.26
2017-04-26T00:10:11.550Z,994.24
2017-04-26T00:11:11.584Z,994.23
2017-04-26T00:12:11.621Z,994.22
2017-04-26T00:13:11.654Z,994.22
2017-04-26T00:14:11.690Z,994.22
2017-04-26T00:15:11.724Z,994.24
2017-04-26T00:16:11.758Z,994.28
2017-04-26T00:17:11.791Z,994.28
2017-04-26T00:18:11.828Z,994.3
2017-04-26T00:19:11.862Z,994.25
2017-04-26T00:20:11.894Z,994.31
2017-04-26T00:21:11.927Z,994.32
2017-04-26T00:22:11.964Z,994.34
2017-04-26T00:23:11.997Z,994.3
2017-04-26T00:24:12.034Z,994.34
2017-04-26T00:25:12.071Z,994.34
2017-04-26T00:26:12.103Z,994.33
2017-04-26T00:27:12.134Z,994.33
2017-04-26T00:28:12.172Z,994.34
2017-04-26T00:29:12.207Z,994.35
2017-04-26T00:30:12.237Z,994.35
2017-04-26T00:31:12.274Z,994.33
2017-04-26T00:32:12.309Z,994.33
2017-04-26T00:33:12.340Z,994.32
2017-04-26T00:34:12.375Z,994.34
2017-04-26T00:35:12.412Z,994.3
2017-04-26T00:36:12.447Z,994.27
2017-04-26T00:37:12.480Z,994.29
2017-04-26T00:38:12.512Z,994.28
2017-04-26T00:39:12.548Z,994.29
2017-04-26T00:40:12.580Z,994.31
2017-04-26T00:41:12.613Z,994.29
2017-04-26T00:42:12.648Z,994.29
2017-04-26T00:43:12.683Z,994.35
2017-04-26T00:44:12.718Z,994.41
2017-04-26T00:45:12.753Z,994.46
2017-04-26T00:46:12.788Z,994.46
2017-04-26T00:47:12.822Z,994.5
2017-04-26T00:48:12.854Z,994.52
2017-04-26T00:49:12.890Z,994.53
2017-04-26T00:50:12.926Z,994.52
2017-04-26T00:51:12.959Z,994.49
2017-04-26T00:52:12.991Z,994.54
2017-04-26T00:53:13.029Z,994.52
2017-04-26T00:54:13.062Z,994.51
2017-04-26T00:55:13.093Z,994.48
2017-04-26T00:56:13.129Z,994.46
2017-04-26T00:57:13.162Z,994.44
2017-04-26T00:58:13.199Z,994.43
2017-04-26T00:59:13.231Z,994.44
2017-04-26T01:00:13.264Z,994.42
2017-04-26T01:01:13.301Z,994.4
2017-04-26T01:02:13.334Z,994.4
2017-04-26T01:03:13.367Z,994.42
2017-04-26T01:04:13.402Z,994.42
2017-04-26T01:05:13.434Z,994.46
2017-04-26T01:06:13.470Z,994.46
2017-04-26T01:07:13.502Z,994.48
2017-04-26T01:08:13.539Z,994.45
2017-04-26T01:09:13.574Z,994.5
2017-04-26T01:10:13.609Z,994.57
2017-04-26T01:11:13.641Z,994.57
2017-04-26T01:12:13.676Z,994.57
2017-04-26T01:13:13.715Z,994.5
2017-04-26T01:14:13.752Z,994.51
2017-04-26T01:15:13.779Z,994.44
2017-04-26T01:16:13.812Z,994.42
2017-04-26T01:17:13.847Z,994.42
2017-04-26T01:18:13.881Z,994.44
2017-04-26T01:19:13.916Z,994.49
2017-04-26T01:20:13.951Z,994.5
2017-04-26T01:21:13.983Z,994.52
2017-04-26T01:22:14.017Z,994.57
2017-04-26T01:23:14.051Z,994.57
2017-04-26T01:24:14.086Z,994.58
2017-04-26T01:25:14.120Z,994.57
2017-04-26T01:26:14.153Z,994.57
2017-04-26T01:27:14.187Z,994.64
2017-04-26T01:28:14.223Z,994.63
2017-04-26T01:29:14.256Z,994.68
2017-04-26T01:30:14.290Z,994.73
2017-04-26T01:31:14.325Z,994.76
2017-04-26T01:32:14.359Z,994.79
2017-04-26T01:33:14.392Z,994.77
2017-04-26T01:34:14.426Z,994.85
2017-04-26T01:35:14.462Z,994.89
2017-04-26T01:36:14.495Z,994.89
2017-04-26T01:37:14.529Z,994.86
2017-04-26T01:38:14.564Z,994.86
2017-04-26T01:39:14.598Z,994.86
2017-04-26T01:40:14.631Z,994.83
2017-04-26T01:41:14.686Z,994.85
2017-04-26T01:42:14.700Z,994.84
2017-04-26T01:43:14.735Z,994.84
2017-04-26T01:44:14.767Z,994.81
2017-04-26T01:45:14.802Z,994.84
2017-04-26T01:46:14.836Z,994.86
2017-04-26T01:47:14.869Z,994.91
2017-04-26T01:48:14.904Z,994.95
2017-04-26T01:49:14.939Z,994.98
2017-04-26T01:50:14.973Z,994.99
2017-04-26T01:51:15.007Z,994.94
2017-04-26T01:52:15.040Z,994.95
2017-04-26T01:53:15.076Z,994.97
2017-04-26T01:54:15.110Z,994.97
2017-04-26T01:55:15.144Z,994.95
2017-04-26T01:56:15.180Z,994.95
2017-04-26T01:57:15.213Z,994.95
2017-04-26T01:58:15.249Z,994.96
2017-04-26T01:59:15.281Z,994.97
2017-04-26T02:00:15.313Z,994.94
2017-04-26T02:01:15.351Z,994.92
2017-04-26T02:02:15.384Z,994.93
2017-04-26T02:03:15.416Z,994.92
2017-04-26T02:04:15.450Z,994.93
2017-04-26T02:05:15.484Z,994.92
2017-04-26T02:06:15.518Z,994.94
2017-04-26T02:07:15.558Z,994.93
2017-04-26T02:08:15.586Z,994.96
2017-04-26T02:09:15.621Z,995.04
2017-04-26T02:10:15.654Z,995.04
2017-04-26T02:11:15.688Z,995
2017-04-26T02:12:15.725Z,995.01
2017-04-26T02:13:15.757Z,995.01
2017-04-26T02:14:15.794Z,995
2017-04-26T02:15:15.824Z,994.91
2017-04-26T02:16:15.858Z,994.93
2017-04-26T02:17:15.895Z,994.9
2017-04-26T02:18:15.926Z,994.9
2017-04-26T02:19:15.963Z,994.93
2017-04-26T02:20:15.995Z,994.87
2017-04-26T02:21:16.028Z,994.93
2017-04-26T02:22:16.064Z,994.97
2017-04-26T02:23:16.097Z,994.97
2017-04-26T02:24:16.133Z,995.02
2017-04-26T02:25:16.164Z,994.92
2017-04-26T02:26:16.199Z,994.97
2017-04-26T02:27:16.242Z,995.01
2017-04-26T02:28:16.267Z,995.06
2017-04-26T02:29:16.303Z,995.06
2017-04-26T02:30:16.336Z,995.11
2017-04-26T02:31:16.370Z,995.16
2017-04-26T02:32:16.401Z,995.16
2017-04-26T02:33:16.437Z,995.15
2017-04-26T02:34:16.469Z,995.18
2017-04-26T02:35:16.504Z,995.16
2017-04-26T02:36:16.539Z,995.16
2017-04-26T02:37:16.572Z,995.14
2017-04-26T02:38:16.604Z,995.06
2017-04-26T02:39:16.641Z,995.08
2017-04-26T02:40:16.673Z,995.06
2017-04-26T02:41:16.709Z,995.1
2017-04-26T02:42:16.742Z,995.13
2017-04-26T02:43:16.775Z,995.11
2017-04-26T02:44:16.808Z,995.11
2017-04-26T02:45:16.842Z,995.14
2017-04-26T02:46:16.877Z,995.12
2017-04-26T02:47:16.911Z,995.14
2017-04-26T02:48:16.945Z,995.15
2017-04-26T02:49:16.979Z,995.11
2017-04-26T02:50:17.013Z,995.1
2017-04-26T02:51:17.047Z,995.04
2017-04-26T02:52:17.080Z,994.97
2017-04-26T02:53:17.113Z,994.94
2017-04-26T02:54:17.150Z,994.97
2017-04-26T02:55:17.183Z,995.02
2017-04-26T02:56:17.218Z,995.07
2017-04-26T02:57:17.249Z,995.08
2017-04-26T02:58:17.284Z,995.07
2017-04-26T02:59:17.321Z,995.04
2017-04-26T03:00:17.351Z,995.04
2017-04-26T03:01:17.386Z,995.06
2017-04-26T03:02:17.420Z,995.05
2017-04-26T03:03:17.453Z,995.11
2017-04-26T03:04:17.487Z,995.1
2017-04-26T03:05:17.522Z,995.06
2017-04-26T03:06:17.554Z,995.04
2017-04-26T03:07:17.589Z,995.04
2017-04-26T03:08:17.623Z,994.97
2017-04-26T03:09:17.657Z,994.93
2017-04-26T03:10:17.691Z,994.93
2017-04-26T03:11:17.724Z,994.87
2017-04-26T03:12:17.757Z,994.84
2017-04-26T03:13:17.792Z,994.85
2017-04-26T03:14:17.827Z,994.89
2017-04-26T03:15:17.858Z,994.9
2017-04-26T03:16:17.892Z,994.95
2017-04-26T03:17:17.926Z,995.01
2017-04-26T03:18:17.962Z,995.03
2017-04-26T03:19:17.995Z,995
2017-04-26T03:20:18.028Z,995.01
2017-04-26T03:21:18.061Z,994.99
2017-04-26T03:22:18.096Z,994.99
2017-04-26T03:23:18.132Z,994.97
2017-04-26T03:24:18.167Z,994.95
2017-04-26T03:25:18.196Z,994.91
2017-04-26T03:26:18.232Z,994.98
2017-04-26T03:27:18.266Z,994.94
2017-04-26T03:28:18.300Z,995.01
2017-04-26T03:29:18.335Z,995.06
2017-04-26T03:30:18.370Z,995.08
2017-04-26T03:31:18.401Z,995.09
2017-04-26T03:32:18.437Z,995.08
2017-04-26T03:33:18.469Z,995.11
2017-04-26T03:34:18.503Z,995.14
2017-04-26T03:35:18.538Z,995.09
2017-04-26T03:36:18.572Z,995.08
2017-04-26T03:37:18.605Z,995.08
2017-04-26T03:38:18.638Z,995.05
2017-04-26T03:39:18.671Z,995.04
2017-04-26T03:40:18.705Z,995.09
2017-04-26T03:41:18.739Z,995.09
2017-04-26T03:42:18.774Z,995.1
2017-04-26T03:43:18.812Z,995.05
2017-04-26T03:44:18.840Z,995.05
2017-04-26T03:45:18.875Z,994.98
2017-04-26T03:46:18.909Z,995.01
2017-04-26T03:47:18.943Z,994.94
2017-04-26T03:48:18.976Z,994.96
2017-04-26T03:49:19.010Z,994.98
2017-04-26T03:50:19.044Z,995.02
2017-04-26T03:51:19.079Z,994.98
2017-04-26T03:52:19.111Z,995.01
2017-04-26T03:53:19.145Z,995.02
2017-04-26T03:54:19.181Z,995.07
2017-04-26T03:55:19.213Z,995.12
2017-04-26T03:56:19.248Z,995.11
2017-04-26T03:57:19.281Z,995.09
2017-04-26T03:58:19.316Z,995.12
2017-04-26T03:59:19.347Z,995.14
2017-04-26T04:00:19.382Z,995.14
2017-04-26T04:01:19.416Z,995.12
2017-04-26T04:02:19.450Z,995.11
2017-04-26T04:03:19.484Z,995.09
2017-04-26T04:04:19.517Z,995.09
2017-04-26T04:05:19.552Z,995.09
2017-04-26T04:06:19.584Z,995.1
2017-04-26T04:07:19.619Z,995.14
2017-04-26T04:08:19.655Z,995.13
2017-04-26T04:09:19.686Z,995.13
2017-04-26T04:10:19.720Z,995.09
2017-04-26T04:11:19.755Z,995.11
2017-04-26T04:12:19.787Z,995.05
2017-04-26T04:13:19.821Z,995.03
2017-04-26T04:14:19.856Z,995.08
2017-04-26T04:15:19.888Z,995.06
2017-04-26T04:16:19.923Z,995.09
2017-04-26T04:17:19.958Z,995.11
2017-04-26T04:18:19.990Z,995.1
2017-04-26T04:19:20.025Z,995.13
2017-04-26T04:20:20.058Z,995.14
2017-04-26T04:21:20.091Z,995.18
2017-04-26T04:22:20.127Z,995.17
2017-04-26T04:23:20.161Z,995.15
2017-04-26T04:24:20.194Z,995.16
2017-04-26T04:25:20.229Z,995.12
2017-04-26T04:26:20.262Z,995.11
2017-04-26T04:27:20.297Z,995.13
2017-04-26T04:28:20.330Z,995.14
2017-04-26T04:29:20.363Z,995.08
2017-04-26T04:30:20.398Z,995.11
2017-04-26T04:31:20.430Z,995.13
2017-04-26T04:32:20.465Z,995.18
2017-04-26T04:33:20.499Z,995.18
2017-04-26T04:34:20.531Z,995.15
2017-04-26T04:35:20.565Z,995.18
2017-04-26T04:36:20.599Z,995.14
2017-04-26T04:37:20.635Z,995.14
2017-04-26T04:38:20.669Z,995.13
2017-04-26T04:39:20.701Z,995.13
2017-04-26T04:40:20.739Z,995.17
2017-04-26T04:41:20.769Z,995.13
2017-04-26T04:42:20.805Z,995.18
2017-04-26T04:43:20.837Z,995.18
2017-04-26T04:44:20.871Z,995.2
2017-04-26T04:45:20.905Z,995.24
2017-04-26T04:46:20.938Z,995.28
2017-04-26T04:47:20.972Z,995.29
2017-04-26T04:48:21.008Z,995.31
2017-04-26T04:49:21.040Z,995.31
2017-04-26T04:50:21.073Z,995.35
2017-04-26T04:51:21.109Z,995.36
2017-04-26T04:52:21.143Z,995.41
2017-04-26T04:53:21.177Z,995.43
2017-04-26T04:54:21.209Z,995.41
2017-04-26T04:55:21.270Z,995.39
2017-04-26T04:56:21.279Z,995.4
2017-04-26T04:57:21.311Z,995.41
2017-04-26T04:58:21.345Z,995.42
2017-04-26T04:59:21.380Z,995.46
2017-04-26T05:00:21.413Z,995.43
2017-04-26T05:01:21.447Z,995.46
2017-04-26T05:02:21.480Z,995.44
2017-04-26T05:03:21.516Z,995.48
2017-04-26T05:04:21.548Z,995.42
2017-04-26T05:05:21.582Z,995.41
2017-04-26T05:06:21.618Z,995.47
2017-04-26T05:07:21.652Z,995.47
2017-04-26T05:08:21.684Z,995.51
2017-04-26T05:09:21.720Z,995.49
2017-04-26T05:10:21.754Z,995.51
2017-04-26T05:11:21.788Z,995.52
2017-04-26T05:12:21.823Z,995.58
2017-04-26T05:13:21.859Z,995.54
2017-04-26T05:14:21.891Z,995.56
2017-04-26T05:15:21.922Z,995.57
2017-04-26T05:16:21.956Z,995.6
2017-04-26T05:17:21.991Z,995.57
2017-04-26T05:18:22.028Z,995.59
2017-04-26T05:19:22.058Z,995.64
2017-04-26T05:20:22.094Z,995.66
2017-04-26T05:21:22.127Z,995.67
2017-04-26T05:22:22.162Z,995.67
2017-04-26T05:23:22.196Z,995.66
2017-04-26T05:24:22.228Z,995.67
2017-04-26T05:25:22.264Z,995.66
2017-04-26T05:26:22.296Z,995.67
2017-04-26T05:27:22.330Z,995.71
2017-04-26T05:28:22.366Z,995.7
2017-04-26T05:29:22.398Z,995.64
2017-04-26T05:30:22.433Z,995.64
2017-04-26T05:31:22.466Z,995.62
2017-04-26T05:32:22.502Z,995.61
2017-04-26T05:33:22.538Z,995.63
2017-04-26T05:34:22.568Z,995.66
2017-04-26T05:35:22.603Z,995.65
2017-04-26T05:36:22.639Z,995.64
2017-04-26T05:37:22.670Z,995.7
2017-04-26T05:38:22.705Z,995.69
2017-04-26T05:39:22.739Z,995.71
2017-04-26T05:40:22.774Z,995.7
2017-04-26T05:41:22.807Z,995.71
2017-04-26T05:42:22.847Z,995.7
2017-04-26T05:43:22.876Z,995.76
2017-04-26T05:44:22.911Z,995.79
2017-04-26T05:45:22.969Z,995.8
2017-04-26T05:46:22.980Z,995.79
2017-04-26T05:47:23.013Z,995.81
2017-04-26T05:48:23.046Z,995.85
2017-04-26T05:49:23.081Z,995.86
2017-04-26T05:50:23.114Z,995.85
2017-04-26T05:51:23.147Z,995.84
2017-04-26T05:52:23.182Z,995.83
2017-04-26T05:53:23.216Z,995.82
2017-04-26T05:54:23.251Z,995.84
2017-04-26T05:55:23.286Z,995.81
2017-04-26T05:56:23.319Z,995.79
2017-04-26T05:57:23.352Z,995.82
2017-04-26T05:58:23.388Z,995.83
2017-04-26T05:59:23.470Z,995.83
2017-04-26T06:00:23.456Z,995.83
2017-04-26T06:01:23.497Z,995.81
2017-04-26T06:02:23.525Z,995.86
2017-04-26T06:03:23.557Z,995.86
2017-04-26T06:04:23.595Z,995.88
2017-04-26T06:05:23.627Z,995.88
2017-04-26T06:06:23.661Z,995.86
2017-04-26T06:07:23.694Z,995.85
2017-04-26T06:08:23.731Z,995.84
2017-04-26T06:09:23.764Z,995.77
2017-04-26T06:10:23.797Z,995.78
2017-04-26T06:11:23.832Z,995.82
2017-04-26T06:12:23.866Z,995.84
2017-04-26T06:13:23.901Z,995.87
2017-04-26T06:14:23.935Z,995.91
2017-04-26T06:15:23.971Z,995.88
2017-04-26T06:16:24.006Z,995.94
2017-04-26T06:17:24.039Z,995.95
2017-04-26T06:18:24.073Z,995.96
2017-04-26T06:19:24.107Z,995.98
2017-04-26T06:20:24.141Z,995.97
2017-04-26T06:21:24.178Z,995.98
2017-04-26T06:22:24.211Z,996.04
2017-04-26T06:23:24.245Z,996.04
2017-04-26T06:24:24.311Z,996.06
2017-04-26T06:25:24.313Z,996.14
2017-04-26T06:26:24.354Z,996.14
2017-04-26T06:27:24.410Z,996.08
2017-04-26T06:28:24.419Z,996.15
2017-04-26T06:29:24.482Z,996.08
2017-04-26T06:30:24.487Z,996.11
2017-04-26T06:31:24.521Z,996.1
2017-04-26T06:32:24.556Z,996.07
2017-04-26T06:33:24.591Z,996.08
2017-04-26T06:34:24.626Z,996.09
2017-04-26T06:35:24.661Z,996.06
2017-04-26T06:36:24.694Z,996.11
2017-04-26T06:37:24.730Z,996.08
2017-04-26T06:38:24.764Z,996.06
2017-04-26T06:39:24.801Z,996.07
2017-04-26T06:40:24.835Z,996.05
2017-04-26T06:41:24.869Z,996.01
2017-04-26T06:42:24.923Z,996
2017-04-26T06:43:24.939Z,996
2017-04-26T06:44:24.974Z,996
2017-04-26T06:45:25.008Z,996.02
2017-04-26T06:46:25.044Z,996.07
2017-04-26T06:47:25.078Z,996.03
2017-04-26T06:48:25.118Z,995.99
2017-04-26T06:49:25.148Z,995.97
2017-04-26T06:50:25.184Z,995.84
2017-04-26T06:51:25.219Z,995.83
2017-04-26T06:52:25.253Z,995.85
2017-04-26T06:53:25.288Z,995.85
2017-04-26T06:54:25.322Z,995.88
2017-04-26T06:55:25.359Z,995.97
2017-04-26T06:56:25.394Z,996.08
2017-04-26T06:57:25.430Z,996.1
2017-04-26T06:58:25.463Z,996.12
2017-04-26T06:59:25.498Z,996.19
2017-04-26T07:00:25.534Z,996.18
2017-04-26T07:01:25.567Z,996.19
2017-04-26T07:02:25.607Z,996.17
2017-04-26T07:03:25.642Z,996.16
2017-04-26T07:04:25.675Z,996.14
2017-04-26T07:05:25.708Z,996.12
2017-04-26T07:06:25.744Z,996.11
2017-04-26T07:07:25.779Z,996.11
2017-04-26T07:08:25.814Z,996.07
2017-04-26T07:09:25.861Z,996.08
2017-04-26T07:10:25.885Z,996.07
2017-04-26T07:11:25.921Z,996.08
2017-04-26T07:12:25.955Z,996.12
2017-04-26T07:13:25.992Z,996.19
2017-04-26T07:14:26.027Z,996.24
2017-04-26T07:15:26.061Z,996.22
2017-04-26T07:16:26.095Z,996.22
2017-04-26T07:17:26.133Z,996.28
2017-04-26T07:18:26.171Z,996.28
2017-04-26T07:19:26.203Z,996.25
2017-04-26T07:20:26.238Z,996.27
2017-04-26T07:21:26.273Z,996.25
2017-04-26T07:22:26.310Z,996.27
2017-04-26T07:23:26.345Z,996.29
2017-04-26T07:24:26.381Z,996.32
2017-04-26T07:25:26.518Z,996.34
2017-04-26T07:26:26.452Z,996.3
2017-04-26T07:27:26.487Z,996.28
2017-04-26T07:28:26.522Z,996.27
2017-04-26T07:29:26.557Z,996.35
2017-04-26T07:30:26.594Z,996.35
2017-04-26T07:31:26.629Z,996.37
2017-04-26T07:32:26.665Z,996.39
2017-04-26T07:33:26.700Z,996.39
2017-04-26T07:34:27.316Z,996.38
2017-04-26T07:35:26.816Z,996.4
2017-04-26T07:36:26.807Z,996.36
2017-04-26T07:37:26.842Z,996.42
2017-04-26T07:38:26.879Z,996.45
2017-04-26T07:39:26.913Z,996.54
2017-04-26T07:40:26.948Z,996.57
2017-04-26T07:41:26.992Z,996.61
2017-04-26T07:42:27.020Z,996.64
2017-04-26T07:43:27.055Z,996.6
2017-04-26T07:44:27.091Z,996.58
2017-04-26T07:45:27.126Z,996.59
2017-04-26T07:46:27.162Z,996.56
2017-04-26T07:47:27.198Z,996.58
2017-04-26T07:48:27.234Z,996.55
2017-04-26T07:49:27.267Z,996.6
2017-04-26T07:50:27.304Z,996.54
2017-04-26T07:51:27.341Z,996.54
2017-04-26T07:52:27.376Z,996.56
2017-04-26T07:53:27.411Z,996.59
2017-04-26T07:54:27.446Z,996.57
2017-04-26T07:55:27.483Z,996.54
2017-04-26T07:56:27.517Z,996.52
2017-04-26T07:57:27.553Z,996.5
2017-04-26T07:58:27.599Z,996.49
2017-04-26T07:59:27.625Z,996.52
2017-04-26T08:00:27.661Z,996.52
2017-04-26T08:01:27.697Z,996.52
2017-04-26T08:02:27.732Z,996.46
2017-04-26T08:03:27.770Z,996.47
2017-04-26T08:04:27.803Z,996.48
2017-04-26T08:05:27.839Z,996.42
2017-04-26T08:06:27.877Z,996.41
2017-04-26T08:07:27.912Z,996.45
2017-04-26T08:08:27.948Z,996.45
2017-04-26T08:09:27.984Z,996.45
2017-04-26T08:10:28.030Z,996.44
2017-04-26T08:11:28.067Z,996.41
2017-04-26T08:12:28.092Z,996.44
2017-04-26T08:13:28.151Z,996.44
2017-04-26T08:14:28.165Z,996.4
2017-04-26T08:15:28.202Z,996.39
2017-04-26T08:16:28.238Z,996.4
2017-04-26T08:17:28.274Z,996.42
2017-04-26T08:18:28.310Z,996.39
2017-04-26T08:19:28.346Z,996.36
2017-04-26T08:20:28.384Z,996.38
2017-04-26T08:21:28.422Z,996.33
2017-04-26T08:22:28.512Z,996.31
2017-04-26T08:23:28.492Z,996.35
2017-04-26T08:24:28.548Z,996.32
2017-04-26T08:25:28.566Z,996.3
2017-04-26T08:26:28.603Z,996.29
2017-04-26T08:27:28.643Z,996.27
2017-04-26T08:28:28.677Z,996.28
2017-04-26T08:29:28.711Z,996.28
2017-04-26T08:30:28.750Z,996.27
2017-04-26T08:31:28.787Z,996.24
2017-04-26T08:32:28.876Z,996.29
2017-04-26T08:33:28.860Z,996.26
2017-04-26T08:34:28.897Z,996.25
2017-04-26T08:35:28.941Z,996.19
2017-04-26T08:36:28.979Z,996.2
2017-04-26T08:37:29.009Z,996.23
2017-04-26T08:38:29.046Z,996.25
2017-04-26T08:39:29.083Z,996.26
2017-04-26T08:40:29.121Z,996.28
2017-04-26T08:41:29.160Z,996.32
2017-04-26T08:42:29.196Z,996.33
2017-04-26T08:43:29.233Z,996.38
2017-04-26T08:44:29.270Z,996.39
2017-04-26T08:45:29.308Z,996.41
2017-04-26T08:46:29.347Z,996.39
2017-04-26T08:47:29.392Z,996.37
2017-04-26T08:48:29.423Z,996.38
2017-04-26T08:49:29.460Z,996.39
2017-04-26T08:50:29.499Z,996.39
2017-04-26T08:51:29.570Z,996.44
2017-04-26T08:52:29.573Z,996.45
2017-04-26T08:53:29.611Z,996.47
2017-04-26T08:54:29.651Z,996.52
2017-04-26T08:55:29.687Z,996.57
2017-04-26T08:56:29.751Z,996.54
2017-04-26T08:57:29.833Z,996.53
2017-04-26T08:58:29.832Z,996.52
2017-04-26T08:59:29.841Z,996.55
2017-04-26T09:00:29.890Z,996.49
2017-04-26T09:01:29.917Z,996.52
2017-04-26T09:02:29.954Z,996.55
2017-04-26T09:03:29.993Z,996.56
2017-04-26T09:04:30.040Z,996.59
2017-04-26T09:05:30.070Z,996.52
2017-04-26T09:06:30.118Z,996.47
2017-04-26T09:07:30.146Z,996.43
2017-04-26T09:08:30.203Z,996.42
2017-04-26T09:09:30.239Z,996.43
2017-04-26T09:10:30.260Z,996.44
2017-04-26T09:11:30.299Z,996.44
2017-04-26T09:12:30.337Z,996.42
2017-04-26T09:13:30.375Z,996.41
2017-04-26T09:14:30.419Z,996.38
2017-04-26T09:15:30.452Z,996.36
2017-04-26T09:16:30.490Z,996.43
2017-04-26T09:17:30.527Z,996.47
2017-04-26T09:18:30.565Z,996.5
2017-04-26T09:19:30.605Z,996.55
2017-04-26T09:20:30.642Z,996.58
2017-04-26T09:21:30.681Z,996.67
2017-04-26T09:22:30.727Z,996.65
2017-04-26T09:23:30.755Z,996.71
2017-04-26T09:24:30.795Z,996.72
2017-04-26T09:25:30.833Z,996.68
2017-04-26T09:26:30.875Z,996.7
2017-04-26T09:27:30.911Z,996.73
2017-04-26T09:28:30.945Z,996.7
2017-04-26T09:29:30.985Z,996.65
2017-04-26T09:30:31.027Z,996.67
2017-04-26T09:31:31.060Z,996.68
2017-04-26T09:32:31.099Z,996.7
2017-04-26T09:33:31.137Z,996.73
2017-04-26T09:34:31.177Z,996.73
2017-04-26T09:35:31.214Z,996.81
2017-04-26T09:36:31.251Z,996.81
2017-04-26T09:37:31.290Z,996.81
2017-04-26T09:38:31.332Z,996.86
2017-04-26T09:39:31.366Z,996.85
2017-04-26T09:40:31.430Z,996.84
2017-04-26T09:41:31.450Z,996.85
2017-04-26T09:42:31.479Z,996.82
2017-04-26T09:43:31.518Z,996.85
2017-04-26T09:44:31.560Z,996.79
2017-04-26T09:45:31.595Z,996.83
2017-04-26T09:46:31.635Z,996.78
2017-04-26T09:47:31.671Z,996.78
2017-04-26T09:48:31.708Z,996.82
2017-04-26T09:49:31.746Z,996.79
2017-04-26T09:50:31.784Z,996.78
2017-04-26T09:51:31.823Z,996.79
2017-04-26T09:52:31.861Z,996.79
2017-04-26T09:53:31.898Z,996.82
2017-04-26T09:54:31.936Z,996.8
2017-04-26T09:55:31.975Z,996.76
2017-04-26T09:56:32.013Z,996.74
2017-04-26T09:57:32.051Z,996.73
2017-04-26T09:58:32.088Z,996.73
2017-04-26T09:59:32.127Z,996.75
2017-04-26T10:00:32.163Z,996.76
2017-04-26T10:01:32.201Z,996.77
2017-04-26T10:02:32.240Z,996.77
2017-04-26T10:03:32.278Z,996.81
2017-04-26T10:04:32.315Z,996.81
2017-04-26T10:05:32.352Z,996.82
2017-04-26T10:06:32.392Z,996.83
2017-04-26T10:07:32.430Z,996.84
2017-04-26T10:08:32.466Z,996.8
2017-04-26T10:09:32.505Z,996.81
2017-04-26T10:10:32.542Z,996.76
2017-04-26T10:11:32.578Z,996.79
2017-04-26T10:12:32.617Z,996.79
2017-04-26T10:13:32.654Z,996.77
2017-04-26T10:14:32.693Z,996.75
2017-04-26T10:15:32.729Z,996.73
2017-04-26T10:16:32.769Z,996.69
2017-04-26T10:17:32.805Z,996.67
2017-04-26T10:18:32.843Z,996.65
2017-04-26T10:19:32.880Z,996.66
2017-04-26T10:20:32.917Z,996.65
2017-04-26T10:21:32.955Z,996.69
2017-04-26T10:22:32.993Z,996.68
2017-04-26T10:23:33.031Z,996.68
2017-04-26T10:24:33.068Z,996.71
2017-04-26T10:25:33.106Z,996.67
2017-04-26T10:26:33.143Z,996.68
2017-04-26T10:27:33.181Z,996.69
2017-04-26T10:28:33.220Z,996.68
2017-04-26T10:29:33.258Z,996.69
2017-04-26T10:30:33.294Z,996.7
2017-04-26T10:31:33.332Z,996.76
2017-04-26T10:32:33.371Z,996.77
2017-04-26T10:33:33.407Z,996.79
2017-04-26T10:34:33.445Z,996.83
2017-04-26T10:35:33.484Z,996.82
2017-04-26T10:36:33.522Z,996.8
2017-04-26T10:37:33.559Z,996.8
2017-04-26T10:38:33.597Z,996.79
2017-04-26T10:39:33.636Z,996.73
2017-04-26T10:40:33.684Z,996.73
2017-04-26T10:41:33.714Z,996.7
2017-04-26T10:42:35.023Z,996.7
2017-04-26T10:43:33.788Z,996.7
2017-04-26T10:44:33.826Z,996.67
2017-04-26T10:45:33.862Z,996.66
2017-04-26T10:46:33.901Z,996.6
2017-04-26T10:47:33.938Z,996.6
2017-04-26T10:48:33.974Z,996.63
2017-04-26T10:49:34.013Z,996.62
2017-04-26T10:50:34.050Z,996.64
2017-04-26T10:51:34.089Z,996.7
2017-04-26T10:52:34.126Z,996.69
2017-04-26T10:53:34.164Z,996.7
2017-04-26T10:54:34.202Z,996.69
2017-04-26T10:55:34.240Z,996.61
2017-04-26T10:56:34.278Z,996.63
2017-04-26T10:57:34.317Z,996.65
2017-04-26T10:58:34.355Z,996.59
2017-04-26T10:59:34.392Z,996.63
2017-04-26T11:00:34.430Z,996.66
2017-04-26T11:01:34.468Z,996.68
2017-04-26T11:02:34.507Z,996.72
2017-04-26T11:03:34.545Z,996.75
2017-04-26T11:04:34.582Z,996.76
2017-04-26T11:05:34.620Z,996.79
2017-04-26T11:06:34.658Z,996.8
2017-04-26T11:07:34.696Z,996.86
2017-04-26T11:08:34.761Z,996.91
2017-04-26T11:09:34.773Z,996.94
2017-04-26T11:10:34.810Z,996.92
2017-04-26T11:11:34.864Z,997
2017-04-26T11:12:34.887Z,997.01
2017-04-26T11:13:34.926Z,996.98
2017-04-26T11:14:34.963Z,996.96
2017-04-26T11:15:35.002Z,996.96
2017-04-26T11:16:35.039Z,996.93
2017-04-26T11:17:35.077Z,996.93
2017-04-26T11:18:35.122Z,996.96
2017-04-26T11:19:35.155Z,996.99
2017-04-26T11:20:35.193Z,997.01
2017-04-26T11:21:35.231Z,997.06
2017-04-26T11:22:35.270Z,997.05
2017-04-26T11:23:35.306Z,997.04
2017-04-26T11:24:35.345Z,997.09
2017-04-26T11:25:35.385Z,997.05
2017-04-26T11:26:35.422Z,997.08
2017-04-26T11:27:35.461Z,997.06
2017-04-26T11:28:35.497Z,997.07
2017-04-26T11:29:35.587Z,997.09
2017-04-26T11:30:35.573Z,997.07
2017-04-26T11:31:35.629Z,997.05
2017-04-26T11:32:35.650Z,997.04
2017-04-26T11:33:35.691Z,997.04
2017-04-26T11:34:35.727Z,997.05
2017-04-26T11:35:35.763Z,997.01
2017-04-26T11:36:35.802Z,996.99
2017-04-26T11:37:35.840Z,997
2017-04-26T11:38:35.877Z,997.04
2017-04-26T11:39:35.942Z,997.04
2017-04-26T11:40:35.953Z,997.03
2017-04-26T11:41:35.994Z,997.04
2017-04-26T11:42:36.029Z,997.06
2017-04-26T11:43:36.066Z,997.08
2017-04-26T11:44:36.106Z,997.03
2017-04-26T11:45:36.142Z,997.01
2017-04-26T11:46:36.180Z,997.08
2017-04-26T11:47:36.219Z,997.03
2017-04-26T11:48:36.256Z,997.04
2017-04-26T11:49:36.304Z,997.07
2017-04-26T11:50:36.332Z,997.09
2017-04-26T11:51:36.373Z,997.12
2017-04-26T11:52:36.408Z,997.15
2017-04-26T11:53:36.445Z,997.12
2017-04-26T11:54:36.482Z,997.08
2017-04-26T11:55:36.530Z,997.11
2017-04-26T11:56:36.559Z,997.09
2017-04-26T11:57:36.595Z,997.15
2017-04-26T11:58:36.635Z,997.19
2017-04-26T11:59:36.682Z,997.28
2017-04-26T12:00:36.710Z,997.31
2017-04-26T12:01:36.747Z,997.35
2017-04-26T12:02:36.789Z,997.32
2017-04-26T12:03:36.823Z,997.27
2017-04-26T12:04:36.862Z,997.28
2017-04-26T12:05:36.898Z,997.25
2017-04-26T12:06:36.940Z,997.27
2017-04-26T12:07:36.977Z,997.27
2017-04-26T12:08:37.012Z,997.29
2017-04-26T12:09:37.050Z,997.24
2017-04-26T12:10:37.100Z,997.22
2017-04-26T12:11:37.128Z,997.2
2017-04-26T12:12:37.166Z,997.16
2017-04-26T12:13:37.203Z,997.14
2017-04-26T12:14:37.242Z,997.16
2017-04-26T12:15:37.281Z,997.17
2017-04-26T12:16:37.319Z,997.14
2017-04-26T12:17:37.356Z,997.1
2017-04-26T12:18:37.427Z,997.06
2017-04-26T12:19:37.434Z,997.08
2017-04-26T12:20:37.564Z,997.12
2017-04-26T12:21:37.511Z,997.11
2017-04-26T12:22:37.549Z,997.13
2017-04-26T12:23:37.587Z,997.12
2017-04-26T12:24:37.626Z,997.11
2017-04-26T12:25:37.664Z,997.13
2017-04-26T12:26:37.704Z,997.08
2017-04-26T12:27:37.759Z,997.09
2017-04-26T12:28:37.784Z,997.11
2017-04-26T12:29:38.334Z,997.1
2017-04-26T12:30:39.395Z,997.13
2017-04-26T12:31:37.900Z,997.11